Airfield :
LOGIN :

Register | Disclaimer

   EN    FR    IT 

 










Legend :    VFR   Marginal VFR   IFR   Intensive IFR   Very Intensive IFR
Visi :
Ceiling :
>= 8 km
>= 3000ft
5 to 8 km
1000 to 3000 ft
1500m to 5 km
500 to 1000 ft
800 to 1500m
200 to 500 ft
< 800m
< 200 ft
Symbols :   Thunderstorms  Fog  Heavy snow  Heavy precipitations  Wind > 20 kt
SIGMETs :     Misc.  Thunderstorms  Icing  Turbulence  Mountain Waves  Volcanic Ashes






- Airport Elevation : 187 ft


LPMR - Monte Real Air Base

CURRENT METAR :
  • 160000Z VRB02KT 7000 -RA SCT012 BKN020 11/11 Q1003

EXPIRED METARs :
  • 152300Z 22008KT 190V250 6000 -RA FEW008 BKN012 BKN023 13/13 Q1004 RERA
  • 152200Z 16007KT 8000 -RA FEW008 BKN012 BKN023 13/13 Q1004

TAF TAF LPMR
Valid from the 15 at 18:00 until the 16 at 18:00 UTC


151703Z 1518/1618 19012KT 9999 SCT020 BKN025
TEMPO 1518/1610 4000 RA SCT004 BKN006
PROB40
TEMPO 1518/1608 1200 +RADZ BR SCT002 BKN004
BECMG 1604/1606 VRB02KT
BECMG 1610/1612 35013KT SCT015 SCT025
TEMPO 1611/1618 35015G25KT 3000 SHRA BKN012 FEW018CB



MET'MAP, your aeronautical weather chart ! - Copyright ORBIFLY December 2007 - Disclaimer

ORBIFLY MET'MAP TEAM :

Programming & Development : Alexandra Zaïnal
Concept & original design : Baudouin d'Aumeries
Assistance for programming : Marc-Olivier Méhu
Technical & hardware support : Manuel Goepfert

Contact : metmap@orbifly.com




SOURCES & CREDITS :

   NOAA